createdAt,value
2019-05-18T00:01:20.295Z,26.20
2019-05-18T00:03:49.020Z,26.07
2019-05-18T00:06:17.732Z,29.30
2019-05-18T00:08:46.386Z,25.67
2019-05-18T00:11:15.019Z,28.20
2019-05-18T00:13:43.661Z,27.93
2019-05-18T00:16:12.288Z,30.30
2019-05-18T00:18:41.017Z,26.33
2019-05-18T00:21:09.762Z,28.80
2019-05-18T00:23:38.468Z,26.07
2019-05-18T00:26:07.075Z,29.13
2019-05-18T00:28:35.648Z,29.43
2019-05-18T00:31:04.360Z,27.77
2019-05-18T00:33:33.055Z,21.90
2019-05-18T00:36:01.745Z,28.63
2019-05-18T00:38:30.475Z,28.60
2019-05-18T00:40:59.021Z,27.53
2019-05-18T00:43:27.604Z,29.37
2019-05-18T00:45:56.314Z,27.77
2019-05-18T00:48:24.977Z,30.23
2019-05-18T00:50:53.602Z,28.17
2019-05-18T00:53:22.324Z,28.00
2019-05-18T00:55:51.211Z,32.17
2019-05-18T00:58:19.901Z,32.20
2019-05-18T01:00:48.597Z,28.90
2019-05-18T01:03:17.280Z,30.27
2019-05-18T01:05:45.868Z,33.20
2019-05-18T01:08:14.629Z,31.30
2019-05-18T01:10:44.281Z,29.00
2019-05-18T01:13:13.202Z,32.03
2019-05-18T01:15:41.974Z,31.80
2019-05-18T01:18:10.650Z,30.10
2019-05-18T01:20:39.574Z,29.17
2019-05-18T01:23:08.627Z,31.23
2019-05-18T01:25:37.612Z,29.83
2019-05-18T01:28:06.229Z,32.07
2019-05-18T01:30:34.952Z,30.87
2019-05-18T01:33:04.371Z,30.07
2019-05-18T01:35:33.027Z,29.10
2019-05-18T01:38:01.855Z,31.60
2019-05-18T01:40:30.663Z,30.13
2019-05-18T01:42:59.300Z,36.07
2019-05-18T01:45:28.255Z,30.03
2019-05-18T01:48:12.254Z,31.10
2019-05-18T01:50:27.117Z,33.67
2019-05-18T01:52:55.805Z,31.40
2019-05-18T01:55:24.423Z,33.60
2019-05-18T01:57:53.128Z,33.27
2019-05-18T02:00:21.843Z,36.30
2019-05-18T02:02:50.556Z,32.77
2019-05-18T02:05:19.182Z,32.07
2019-05-18T02:07:47.784Z,31.37
2019-05-18T02:10:16.484Z,34.67
2019-05-18T02:12:45.135Z,33.97
2019-05-18T02:15:13.982Z,31.00
2019-05-18T02:17:42.633Z,35.07
2019-05-18T02:20:13.640Z,36.67
2019-05-18T02:22:42.256Z,37.03
2019-05-18T02:25:11.129Z,36.67
2019-05-18T02:27:39.773Z,34.77
2019-05-18T02:30:08.801Z,36.53
2019-05-18T02:32:37.463Z,35.43
2019-05-18T02:35:06.767Z,34.87
2019-05-18T02:37:35.462Z,34.47
2019-05-18T02:40:05.775Z,36.17
2019-05-18T02:42:34.573Z,36.73
2019-05-18T02:45:03.737Z,36.33
2019-05-18T02:47:32.412Z,34.63
2019-05-18T02:50:00.970Z,35.40
2019-05-18T02:52:29.628Z,40.10
2019-05-18T02:54:58.187Z,33.60
2019-05-18T02:57:26.848Z,35.27
2019-05-18T02:59:55.486Z,34.40
2019-05-18T03:02:24.128Z,36.17
2019-05-18T03:04:52.829Z,36.03
2019-05-18T03:07:21.450Z,43.83
2019-05-18T03:09:50.230Z,36.87
2019-05-18T03:12:18.879Z,37.87
2019-05-18T03:14:47.537Z,37.87
2019-05-18T03:17:16.260Z,41.37
2019-05-18T03:19:44.981Z,37.60
2019-05-18T03:22:13.618Z,33.23
2019-05-18T03:24:42.239Z,33.77
2019-05-18T03:27:10.892Z,36.87
2019-05-18T03:29:39.602Z,36.50
2019-05-18T03:32:08.168Z,34.20
2019-05-18T03:34:36.899Z,35.27
2019-05-18T03:37:05.627Z,34.10
2019-05-18T03:39:34.343Z,35.07
2019-05-18T03:42:03.042Z,34.27
2019-05-18T03:44:31.832Z,33.17
2019-05-18T03:47:00.547Z,36.43
2019-05-18T03:49:29.182Z,37.10
2019-05-18T03:51:57.826Z,33.37
2019-05-18T03:54:26.427Z,35.07
2019-05-18T03:56:54.991Z,37.10
2019-05-18T03:59:23.721Z,38.23
2019-05-18T04:01:52.343Z,37.47
2019-05-18T04:04:21.057Z,36.37
2019-05-18T04:06:49.699Z,31.10
2019-05-18T04:09:18.402Z,34.93
2019-05-18T04:11:47.038Z,34.63
2019-05-18T04:14:15.653Z,33.30
2019-05-18T04:16:44.364Z,33.23
2019-05-18T04:19:13.049Z,35.20
2019-05-18T04:21:42.273Z,31.77
2019-05-18T04:24:10.879Z,32.70
2019-05-18T04:26:39.537Z,35.97
2019-05-18T04:29:08.179Z,33.87
2019-05-18T04:31:36.765Z,36.80
2019-05-18T04:34:05.337Z,37.13
2019-05-18T04:36:33.982Z,35.60
2019-05-18T04:39:02.694Z,36.00
2019-05-18T04:41:31.335Z,33.10
2019-05-18T04:44:00.189Z,36.20
2019-05-18T04:46:28.776Z,35.83
2019-05-18T04:48:57.372Z,37.40
2019-05-18T04:51:26.377Z,36.70
2019-05-18T04:53:55.067Z,38.50
2019-05-18T04:56:23.856Z,37.70
2019-05-18T04:58:52.453Z,35.67
2019-05-18T05:01:21.109Z,34.47
2019-05-18T05:03:49.763Z,37.07
2019-05-18T05:06:18.371Z,33.17
2019-05-18T05:08:47.069Z,33.93
2019-05-18T05:11:15.713Z,35.87
2019-05-18T05:13:44.389Z,36.50
2019-05-18T05:16:13.489Z,31.77
2019-05-18T05:18:42.138Z,31.93
2019-05-18T05:21:10.757Z,33.87
2019-05-18T05:23:39.460Z,33.43
2019-05-18T05:26:08.087Z,33.33
2019-05-18T05:28:36.672Z,32.40
2019-05-18T05:31:05.204Z,33.87
2019-05-18T05:33:33.860Z,28.93
2019-05-18T05:36:02.409Z,32.53
2019-05-18T05:38:31.330Z,29.00
2019-05-18T05:41:00.027Z,30.60
2019-05-18T05:43:28.777Z,28.20
2019-05-18T05:45:57.337Z,31.50
2019-05-18T05:48:26.207Z,27.73
2019-05-18T05:50:54.840Z,30.20
2019-05-18T05:53:23.555Z,34.23
2019-05-18T05:55:52.141Z,33.90
2019-05-18T05:58:20.744Z,26.10
2019-05-18T06:00:49.382Z,28.67
2019-05-18T06:03:18.161Z,27.77
2019-05-18T06:05:46.667Z,30.83
2019-05-18T06:08:15.316Z,34.03
2019-05-18T06:10:43.853Z,30.47
2019-05-18T06:13:12.595Z,27.53
2019-05-18T06:15:41.170Z,29.07
2019-05-18T06:18:09.805Z,26.57
2019-05-18T06:20:50.334Z,28.50
2019-05-18T06:23:08.816Z,24.67
2019-05-18T06:25:37.490Z,27.40
2019-05-18T06:28:06.198Z,24.52
2019-05-18T06:30:34.898Z,24.40
2019-05-18T06:33:03.992Z,25.35
2019-05-18T06:35:32.547Z,23.73
2019-05-18T06:38:01.099Z,24.77
2019-05-18T06:40:29.772Z,24.72
2019-05-18T06:42:58.315Z,23.12
2019-05-18T06:45:27.222Z,24.27
2019-05-18T06:47:55.995Z,26.15
2019-05-18T06:50:31.235Z,24.95
2019-05-18T06:53:00.158Z,23.35
2019-05-18T06:55:28.829Z,24.20
2019-05-18T06:57:58.853Z,23.92
2019-05-18T07:00:27.591Z,23.12
2019-05-18T07:02:56.280Z,22.42
2019-05-18T07:05:24.943Z,23.60
2019-05-18T07:07:53.593Z,23.00
2019-05-18T07:10:22.293Z,20.45
2019-05-18T07:12:51.032Z,22.40
2019-05-18T07:15:20.182Z,20.55
2019-05-18T07:17:48.839Z,24.27
2019-05-18T07:20:17.644Z,20.02
2019-05-18T07:22:46.357Z,22.48
2019-05-18T07:25:15.957Z,26.25
2019-05-18T07:27:44.559Z,29.92
2019-05-18T07:30:14.812Z,25.48
2019-05-18T07:32:43.390Z,27.22
2019-05-18T07:35:12.598Z,32.30
2019-05-18T07:37:41.190Z,39.38
2019-05-18T07:40:10.318Z,43.75
2019-05-18T07:42:38.955Z,23.18
2019-05-18T07:45:11.240Z,19.92
2019-05-18T07:47:39.976Z,17.50
2019-05-18T07:50:09.204Z,15.85
2019-05-18T07:52:38.003Z,16.65
2019-05-18T07:55:07.389Z,17.30
2019-05-18T07:57:36.148Z,15.10
2019-05-18T08:00:06.421Z,15.28
2019-05-18T08:02:35.155Z,15.08
2019-05-18T08:05:05.419Z,15.30
2019-05-18T08:07:34.005Z,15.32
2019-05-18T08:10:02.573Z,24.72
2019-05-18T08:12:31.255Z,15.58
2019-05-18T08:14:59.883Z,17.05
2019-05-18T08:17:28.534Z,14.50
2019-05-18T08:19:57.237Z,15.45
2019-05-18T08:22:25.743Z,16.62
2019-05-18T08:24:54.252Z,13.95
2019-05-18T08:27:23.043Z,13.32
2019-05-18T08:29:51.773Z,14.30
2019-05-18T08:32:20.320Z,12.78
2019-05-18T08:34:48.984Z,11.30
2019-05-18T08:37:17.661Z,11.70
2019-05-18T08:39:46.224Z,11.70
2019-05-18T08:42:14.714Z,11.03
2019-05-18T08:44:43.415Z,10.68
2019-05-18T08:47:11.966Z,9.98
2019-05-18T08:49:40.575Z,10.82
2019-05-18T08:52:09.363Z,9.63
2019-05-18T08:54:38.096Z,13.13
2019-05-18T08:57:06.744Z,11.95
2019-05-18T08:59:35.613Z,11.05
2019-05-18T09:02:04.228Z,11.63
2019-05-18T09:04:32.875Z,13.45
2019-05-18T09:07:01.506Z,11.40
2019-05-18T09:09:30.163Z,10.88
2019-05-18T09:11:58.871Z,8.95
2019-05-18T09:14:27.527Z,13.68
2019-05-18T09:16:56.090Z,12.53
2019-05-18T09:19:24.665Z,10.50
2019-05-18T09:21:53.293Z,14.35
2019-05-18T09:24:21.801Z,10.23
2019-05-18T09:26:50.543Z,12.43
2019-05-18T09:29:19.322Z,14.93
2019-05-18T09:31:48.107Z,10.40
2019-05-18T09:34:16.797Z,11.30
2019-05-18T09:36:45.335Z,12.15
2019-05-18T09:39:13.880Z,10.95
2019-05-18T09:41:42.651Z,10.88
2019-05-18T09:44:11.276Z,12.00
2019-05-18T09:46:40.020Z,11.22
2019-05-18T09:49:08.712Z,11.60
2019-05-18T09:51:37.619Z,8.13
2019-05-18T09:54:06.328Z,9.95
2019-05-18T09:56:35.259Z,8.10
2019-05-18T09:59:04.147Z,9.50
2019-05-18T10:01:32.732Z,11.25
2019-05-18T10:04:01.391Z,10.25
2019-05-18T10:06:31.549Z,6.15
2019-05-18T10:09:00.358Z,6.42
2019-05-18T10:11:29.078Z,6.08
2019-05-18T10:13:57.770Z,8.78
2019-05-18T10:16:26.359Z,10.98
2019-05-18T10:18:55.009Z,5.95
2019-05-18T10:21:23.682Z,6.55
2019-05-18T10:23:52.177Z,7.55
2019-05-18T10:26:21.031Z,8.15
2019-05-18T10:28:49.623Z,6.83
2019-05-18T10:31:18.221Z,5.72
2019-05-18T10:33:46.780Z,5.60
2019-05-18T10:36:15.571Z,6.10
2019-05-18T10:38:44.148Z,10.25
2019-05-18T10:41:12.769Z,5.47
2019-05-18T10:43:41.994Z,6.70
2019-05-18T10:46:10.753Z,8.13
2019-05-18T10:48:39.314Z,7.72
2019-05-18T10:51:07.935Z,5.92
2019-05-18T10:53:36.640Z,7.25
2019-05-18T10:56:05.256Z,5.60
2019-05-18T10:58:34.011Z,9.95
2019-05-18T11:01:02.688Z,11.60
2019-05-18T11:03:34.287Z,6.83
2019-05-18T11:06:03.011Z,5.85
2019-05-18T11:08:31.809Z,5.87
2019-05-18T11:11:00.516Z,8.78
2019-05-18T11:13:29.544Z,6.40
2019-05-18T11:15:58.040Z,6.75
2019-05-18T11:18:26.783Z,6.15
2019-05-18T11:20:55.568Z,5.12
2019-05-18T11:23:24.289Z,6.72
2019-05-18T11:25:52.989Z,5.60
2019-05-18T11:28:21.675Z,6.25
2019-05-18T11:30:50.392Z,6.47
2019-05-18T11:33:19.103Z,7.35
2019-05-18T11:35:47.963Z,8.25
2019-05-18T11:38:16.579Z,5.50
2019-05-18T11:40:45.343Z,9.90
2019-05-18T11:43:13.979Z,6.58
2019-05-18T11:45:42.657Z,5.08
2019-05-18T11:48:11.379Z,6.67
2019-05-18T11:50:40.065Z,4.62
2019-05-18T11:53:08.641Z,5.47
2019-05-18T11:55:37.302Z,6.92
2019-05-18T11:58:05.994Z,8.03
2019-05-18T12:00:34.652Z,4.90
2019-05-18T12:03:03.362Z,4.72
2019-05-18T12:05:32.078Z,6.97
2019-05-18T12:08:00.776Z,4.83
2019-05-18T12:10:29.640Z,10.60
2019-05-18T12:12:58.327Z,4.72
2019-05-18T12:15:27.526Z,5.90
2019-05-18T12:17:56.242Z,5.15
2019-05-18T12:20:24.942Z,5.85
2019-05-18T12:22:53.609Z,4.75
2019-05-18T12:25:22.304Z,7.28
2019-05-18T12:27:50.817Z,8.28
2019-05-18T12:30:20.816Z,6.10
2019-05-18T12:32:49.572Z,5.22
2019-05-18T12:35:18.498Z,4.08
2019-05-18T12:37:47.206Z,6.42
2019-05-18T12:40:18.170Z,4.10
2019-05-18T12:42:46.883Z,3.25
2019-05-18T12:45:16.028Z,4.45
2019-05-18T12:47:44.688Z,2.77
2019-05-18T12:50:13.769Z,2.65
2019-05-18T12:52:42.583Z,3.75
2019-05-18T12:55:13.176Z,2.92
2019-05-18T12:57:41.876Z,2.60
2019-05-18T13:00:15.286Z,3.52
2019-05-18T13:02:43.886Z,4.62
2019-05-18T13:05:14.191Z,2.60
2019-05-18T13:07:42.902Z,2.22
2019-05-18T13:10:12.867Z,2.30
2019-05-18T13:12:41.497Z,3.22
2019-05-18T13:15:11.882Z,2.55
2019-05-18T13:17:40.596Z,3.98
2019-05-18T13:20:11.805Z,2.85
2019-05-18T13:22:40.613Z,3.40
2019-05-18T13:25:10.033Z,4.00
2019-05-18T13:27:39.947Z,4.12
2019-05-18T13:30:11.548Z,3.67
2019-05-18T13:32:40.482Z,1.82
2019-05-18T13:35:10.587Z,2.00
2019-05-18T13:37:39.342Z,2.17
2019-05-18T13:40:09.685Z,3.33
2019-05-18T13:42:39.496Z,5.50
2019-05-18T13:45:09.115Z,4.35
2019-05-18T13:47:37.778Z,2.17
2019-05-18T13:50:08.308Z,2.62
2019-05-18T13:52:37.011Z,4.00
2019-05-18T13:55:06.095Z,2.35
2019-05-18T13:57:35.087Z,2.67
2019-05-18T14:00:07.832Z,3.70
2019-05-18T14:02:36.602Z,3.52
2019-05-18T14:05:06.477Z,2.30
2019-05-18T14:07:35.679Z,2.42
2019-05-18T14:10:12.271Z,6.87
2019-05-18T14:12:39.665Z,3.60
2019-05-18T14:15:09.187Z,3.72
2019-05-18T14:17:37.728Z,6.67
2019-05-18T14:20:07.063Z,9.15
2019-05-18T14:22:35.755Z,4.40
2019-05-18T14:25:18.690Z,3.45
2019-05-18T14:27:37.614Z,5.25
2019-05-18T14:30:08.018Z,4.90
2019-05-18T14:32:36.644Z,3.58
2019-05-18T14:35:06.875Z,3.20
2019-05-18T14:37:35.535Z,3.83
2019-05-18T14:40:08.243Z,4.00
2019-05-18T14:42:36.846Z,3.35
2019-05-18T14:45:07.324Z,2.45
2019-05-18T14:47:36.026Z,5.30
2019-05-18T14:50:06.011Z,4.12
2019-05-18T14:52:34.699Z,3.77
2019-05-18T14:55:04.110Z,3.00
2019-05-18T14:57:32.830Z,5.03
2019-05-18T15:00:02.539Z,3.27
2019-05-18T15:02:31.254Z,5.50
2019-05-18T15:04:59.976Z,8.78
2019-05-18T15:07:28.676Z,3.65
2019-05-18T15:09:57.392Z,4.70
2019-05-18T15:12:26.119Z,6.87
2019-05-18T15:14:54.898Z,4.25
2019-05-18T15:17:23.544Z,3.80
2019-05-18T15:19:52.223Z,8.00
2019-05-18T15:22:20.868Z,3.98
2019-05-18T15:24:49.635Z,5.58
2019-05-18T15:27:18.178Z,5.50
2019-05-18T15:29:46.806Z,9.90
2019-05-18T15:32:15.540Z,7.05
2019-05-18T15:34:44.078Z,3.77
2019-05-18T15:37:12.836Z,8.63
2019-05-18T15:39:42.033Z,7.03
2019-05-18T15:42:10.697Z,7.28
2019-05-18T15:44:39.375Z,10.03
2019-05-18T15:47:08.124Z,5.28
2019-05-18T15:49:36.795Z,2.20
2019-05-18T15:52:05.542Z,4.97
2019-05-18T15:54:36.180Z,4.95
2019-05-18T15:57:04.613Z,5.20
2019-05-18T15:59:33.232Z,5.15
2019-05-18T16:02:05.825Z,6.67
2019-05-18T16:04:32.120Z,4.53
2019-05-18T16:07:00.692Z,4.85
2019-05-18T16:09:29.437Z,5.47
2019-05-18T16:11:58.151Z,3.55
2019-05-18T16:14:26.887Z,3.25
2019-05-18T16:16:55.548Z,4.60
2019-05-18T16:19:24.269Z,5.12
2019-05-18T16:21:53.253Z,4.20
2019-05-18T16:24:21.879Z,4.80
2019-05-18T16:26:50.543Z,4.58
2019-05-18T16:29:19.548Z,4.03
2019-05-18T16:31:48.470Z,4.83
2019-05-18T16:34:17.867Z,4.05
2019-05-18T16:36:46.532Z,5.75
2019-05-18T16:39:15.254Z,6.72
2019-05-18T16:41:43.923Z,4.20
2019-05-18T16:44:13.055Z,7.25
2019-05-18T16:46:41.630Z,8.08
2019-05-18T16:49:10.774Z,4.95
2019-05-18T16:51:39.457Z,8.25
2019-05-18T16:54:08.204Z,5.22
2019-05-18T16:56:37.015Z,5.17
2019-05-18T16:59:05.748Z,5.95
2019-05-18T17:01:34.441Z,7.47
2019-05-18T17:04:03.151Z,6.90
2019-05-18T17:06:31.705Z,5.78
2019-05-18T17:09:00.352Z,6.40
2019-05-18T17:11:28.913Z,5.50
2019-05-18T17:13:57.703Z,8.58
2019-05-18T17:16:26.390Z,7.87
2019-05-18T17:18:55.041Z,7.33
2019-05-18T17:21:23.816Z,7.47
2019-05-18T17:23:53.686Z,8.50
2019-05-18T17:26:22.540Z,7.80
2019-05-18T17:28:51.323Z,10.05
2019-05-18T17:31:20.134Z,6.22
2019-05-18T17:33:48.773Z,7.53
2019-05-18T17:36:19.609Z,12.05
2019-05-18T17:38:47.914Z,13.38
2019-05-18T17:41:16.602Z,11.08
2019-05-18T17:43:45.334Z,14.38
2019-05-18T17:46:14.252Z,20.15
2019-05-18T17:48:43.166Z,18.17
2019-05-18T17:51:11.901Z,16.65
2019-05-18T17:53:40.701Z,12.47
2019-05-18T17:56:09.583Z,18.65
2019-05-18T17:58:38.349Z,22.20
2019-05-18T18:01:07.072Z,19.98
2019-05-18T18:03:35.741Z,15.60
2019-05-18T18:06:04.454Z,11.30
2019-05-18T18:08:33.105Z,11.90
2019-05-18T18:11:01.857Z,11.83
2019-05-18T18:13:30.560Z,12.10
2019-05-18T18:15:59.289Z,11.35
2019-05-18T18:18:28.134Z,11.85
2019-05-18T18:20:57.786Z,11.15
2019-05-18T18:23:26.479Z,8.78
2019-05-18T18:25:55.163Z,16.15
2019-05-18T18:28:23.847Z,17.25
2019-05-18T18:30:52.448Z,13.25
2019-05-18T18:33:21.327Z,10.60
2019-05-18T18:35:49.975Z,12.30
2019-05-18T18:38:19.349Z,13.78
2019-05-18T18:40:47.988Z,11.75
2019-05-18T18:43:16.619Z,11.10
2019-05-18T18:45:45.392Z,12.50
2019-05-18T18:48:14.043Z,12.05
2019-05-18T18:50:42.731Z,13.58
2019-05-18T18:53:23.108Z,16.30
2019-05-18T18:55:51.863Z,12.98
2019-05-18T18:58:21.146Z,14.30
2019-05-18T19:00:50.091Z,11.38
2019-05-18T19:03:18.724Z,11.90
2019-05-18T19:05:47.389Z,12.68
2019-05-18T19:08:16.137Z,13.08
2019-05-18T19:10:44.845Z,11.78
2019-05-18T19:13:13.543Z,14.85
2019-05-18T19:15:42.308Z,12.47
2019-05-18T19:18:10.962Z,16.32
2019-05-18T19:20:39.582Z,15.08
2019-05-18T19:23:08.328Z,12.23
2019-05-18T19:25:36.957Z,32.98
2019-05-18T19:28:05.640Z,62.25
2019-05-18T19:30:34.338Z,46.05
2019-05-18T19:33:03.121Z,35.35
2019-05-18T19:35:31.829Z,18.90
2019-05-18T19:38:00.575Z,13.75
2019-05-18T19:40:29.203Z,13.05
2019-05-18T19:42:57.931Z,10.55
2019-05-18T19:45:26.631Z,8.83
2019-05-18T19:47:55.358Z,9.28
2019-05-18T19:50:24.052Z,9.58
2019-05-18T19:52:52.800Z,8.28
2019-05-18T19:55:21.477Z,7.95
2019-05-18T19:57:50.432Z,9.20
2019-05-18T20:00:19.750Z,9.95
2019-05-18T20:02:48.426Z,8.30
2019-05-18T20:05:17.265Z,7.80
2019-05-18T20:07:45.928Z,7.75
2019-05-18T20:10:15.144Z,9.48
2019-05-18T20:12:43.682Z,9.13
2019-05-18T20:15:12.738Z,7.00
2019-05-18T20:17:41.444Z,7.85
2019-05-18T20:20:10.420Z,7.25
2019-05-18T20:22:39.354Z,9.50
2019-05-18T20:25:08.357Z,7.12
2019-05-18T20:27:37.056Z,7.45
2019-05-18T20:30:07.767Z,7.33
2019-05-18T20:32:36.470Z,8.50
2019-05-18T20:35:05.533Z,8.10
2019-05-18T20:37:34.239Z,7.70
2019-05-18T20:40:02.950Z,8.88
2019-05-18T20:42:31.525Z,7.72
2019-05-18T20:45:00.116Z,8.15
2019-05-18T20:47:29.013Z,11.15
2019-05-18T20:49:58.095Z,7.92
2019-05-18T20:52:26.785Z,7.42
2019-05-18T20:54:55.450Z,10.18
2019-05-18T20:57:24.088Z,8.88
2019-05-18T20:59:52.711Z,9.60
2019-05-18T21:02:21.402Z,8.58
2019-05-18T21:04:50.082Z,11.93
2019-05-18T21:07:18.775Z,9.38
2019-05-18T21:09:47.384Z,8.68
2019-05-18T21:12:16.088Z,9.10
2019-05-18T21:14:44.732Z,8.55
2019-05-18T21:17:13.328Z,9.60
2019-05-18T21:19:41.925Z,9.78
2019-05-18T21:22:10.609Z,9.78
2019-05-18T21:24:39.300Z,10.28
2019-05-18T21:27:08.083Z,10.03
2019-05-18T21:29:36.650Z,10.78
2019-05-18T21:32:05.271Z,9.43
2019-05-18T21:34:34.250Z,10.10
2019-05-18T21:37:03.012Z,10.78
2019-05-18T21:39:31.626Z,9.93
2019-05-18T21:42:00.292Z,10.20
2019-05-18T21:44:28.912Z,9.40
2019-05-18T21:46:57.495Z,9.10
2019-05-18T21:49:26.120Z,9.70
2019-05-18T21:51:54.789Z,10.08
2019-05-18T21:54:23.494Z,9.95
2019-05-18T21:56:52.128Z,9.63
2019-05-18T21:59:20.610Z,9.38
2019-05-18T22:01:49.353Z,9.90
2019-05-18T22:04:18.041Z,9.15
2019-05-18T22:06:46.677Z,11.90
2019-05-18T22:09:15.388Z,10.32
2019-05-18T22:11:43.986Z,8.78
2019-05-18T22:14:12.691Z,8.73
2019-05-18T22:16:41.495Z,8.98
2019-05-18T22:19:10.244Z,9.88
2019-05-18T22:21:38.977Z,12.20
2019-05-18T22:24:07.653Z,10.65
2019-05-18T22:26:36.339Z,10.65
2019-05-18T22:29:05.141Z,11.57
2019-05-18T22:31:34.201Z,12.30
2019-05-18T22:34:03.003Z,10.38
2019-05-18T22:36:31.734Z,11.25
2019-05-18T22:39:00.325Z,11.65
2019-05-18T22:41:29.055Z,12.80
2019-05-18T22:43:57.756Z,13.78
2019-05-18T22:46:26.491Z,12.75
2019-05-18T22:48:55.076Z,12.47
2019-05-18T22:51:23.613Z,15.00
2019-05-18T22:53:52.432Z,13.22
2019-05-18T22:56:21.120Z,17.80
2019-05-18T22:58:49.859Z,15.25
2019-05-18T23:01:18.619Z,13.75
2019-05-18T23:03:47.244Z,13.45
2019-05-18T23:06:15.941Z,15.72
2019-05-18T23:08:44.627Z,15.32
2019-05-18T23:11:13.278Z,15.72
2019-05-18T23:13:42.414Z,14.25
2019-05-18T23:16:11.064Z,12.37
2019-05-18T23:18:39.772Z,14.03
2019-05-18T23:21:08.403Z,16.55
2019-05-18T23:23:37.092Z,14.05
2019-05-18T23:26:05.650Z,13.05
2019-05-18T23:28:34.300Z,14.05
2019-05-18T23:31:02.934Z,14.75
2019-05-18T23:33:31.657Z,12.85
2019-05-18T23:36:00.295Z,13.38
2019-05-18T23:38:28.845Z,13.60
2019-05-18T23:40:57.484Z,13.08
2019-05-18T23:43:26.119Z,16.65
2019-05-18T23:45:54.747Z,11.48
2019-05-18T23:48:23.470Z,14.73
2019-05-18T23:50:52.141Z,13.05
2019-05-18T23:53:20.817Z,13.25
2019-05-18T23:55:49.479Z,13.85
2019-05-18T23:58:18.119Z,15.80
